sensor_id;sensor_type;location;lat;lon;timestamp;P1;durP1;ratioP1;P2;durP2;ratioP2
69053;SDS011;56125;52.242;4.756;2022-09-09T00:00:14;0.82;;;0.63;;
69053;SDS011;56125;52.242;4.756;2022-09-09T00:05:19;3.17;;;0.80;;
69053;SDS011;56125;52.242;4.756;2022-09-09T00:10:33;1.13;;;0.70;;
69053;SDS011;56125;52.242;4.756;2022-09-09T00:15:43;1.93;;;0.70;;
69053;SDS011;56125;52.242;4.756;2022-09-09T00:20:58;1.00;;;0.70;;
69053;SDS011;56125;52.242;4.756;2022-09-09T00:26:16;1.43;;;0.70;;
69053;SDS011;56125;52.242;4.756;2022-09-09T00:31:31;1.27;;;0.65;;
69053;SDS011;56125;52.242;4.756;2022-09-09T00:36:33;1.67;;;0.83;;
69053;SDS011;56125;52.242;4.756;2022-09-09T00:41:44;1.83;;;0.90;;
69053;SDS011;56125;52.242;4.756;2022-09-09T00:52:22;1.52;;;0.73;;
69053;SDS011;56125;52.242;4.756;2022-09-09T00:57:30;1.03;;;0.80;;
69053;SDS011;56125;52.242;4.756;2022-09-09T01:07:43;2.30;;;0.90;;
69053;SDS011;56125;52.242;4.756;2022-09-09T01:12:47;2.20;;;1.00;;
69053;SDS011;56125;52.242;4.756;2022-09-09T01:23:12;1.63;;;1.05;;
69053;SDS011;56125;52.242;4.756;2022-09-09T01:28:29;3.03;;;0.83;;
69053;SDS011;56125;52.242;4.756;2022-09-09T01:33:32;2.60;;;1.10;;
69053;SDS011;56125;52.242;4.756;2022-09-09T01:38:33;1.50;;;0.93;;
69053;SDS011;56125;52.242;4.756;2022-09-09T01:43:36;1.35;;;0.90;;
69053;SDS011;56125;52.242;4.756;2022-09-09T01:48:38;1.90;;;0.90;;
69053;SDS011;56125;52.242;4.756;2022-09-09T01:53:41;2.35;;;0.80;;
69053;SDS011;56125;52.242;4.756;2022-09-09T02:03:51;1.40;;;0.98;;
69053;SDS011;56125;52.242;4.756;2022-09-09T02:08:57;1.87;;;1.00;;
69053;SDS011;56125;52.242;4.756;2022-09-09T02:14:22;2.15;;;0.98;;
69053;SDS011;56125;52.242;4.756;2022-09-09T02:19:28;1.30;;;1.00;;
69053;SDS011;56125;52.242;4.756;2022-09-09T02:24:33;1.85;;;1.08;;
69053;SDS011;56125;52.242;4.756;2022-09-09T02:29:39;1.43;;;0.80;;
69053;SDS011;56125;52.242;4.756;2022-09-09T02:34:47;3.00;;;1.00;;
69053;SDS011;56125;52.242;4.756;2022-09-09T02:40:02;1.97;;;1.03;;
69053;SDS011;56125;52.242;4.756;2022-09-09T02:45:08;1.75;;;0.80;;
69053;SDS011;56125;52.242;4.756;2022-09-09T02:50:12;1.43;;;0.80;;
69053;SDS011;56125;52.242;4.756;2022-09-09T02:55:18;1.50;;;1.10;;
69053;SDS011;56125;52.242;4.756;2022-09-09T03:00:27;1.40;;;0.90;;
69053;SDS011;56125;52.242;4.756;2022-09-09T03:05:29;2.63;;;1.00;;
69053;SDS011;56125;52.242;4.756;2022-09-09T03:10:30;1.43;;;1.00;;
69053;SDS011;56125;52.242;4.756;2022-09-09T03:15:32;1.90;;;0.95;;
69053;SDS011;56125;52.242;4.756;2022-09-09T03:20:33;1.13;;;0.73;;
69053;SDS011;56125;52.242;4.756;2022-09-09T03:25:34;3.42;;;1.00;;
69053;SDS011;56125;52.242;4.756;2022-09-09T03:30:36;1.73;;;0.90;;
69053;SDS011;56125;52.242;4.756;2022-09-09T03:35:38;1.30;;;1.15;;
69053;SDS011;56125;52.242;4.756;2022-09-09T03:40:47;2.27;;;1.00;;
69053;SDS011;56125;52.242;4.756;2022-09-09T03:45:55;2.30;;;0.90;;
69053;SDS011;56125;52.242;4.756;2022-09-09T03:50:59;1.97;;;0.90;;
69053;SDS011;56125;52.242;4.756;2022-09-09T03:56:01;1.17;;;0.80;;
69053;SDS011;56125;52.242;4.756;2022-09-09T04:01:07;2.20;;;1.13;;
69053;SDS011;56125;52.242;4.756;2022-09-09T04:06:10;1.55;;;0.80;;
69053;SDS011;56125;52.242;4.756;2022-09-09T04:11:14;1.67;;;1.00;;
69053;SDS011;56125;52.242;4.756;2022-09-09T04:16:15;2.15;;;0.98;;
69053;SDS011;56125;52.242;4.756;2022-09-09T04:21:16;1.23;;;0.77;;
69053;SDS011;56125;52.242;4.756;2022-09-09T04:26:19;1.40;;;0.80;;
69053;SDS011;56125;52.242;4.756;2022-09-09T04:31:21;1.60;;;1.10;;
69053;SDS011;56125;52.242;4.756;2022-09-09T04:36:23;2.25;;;0.98;;
69053;SDS011;56125;52.242;4.756;2022-09-09T04:41:24;2.17;;;1.00;;
69053;SDS011;56125;52.242;4.756;2022-09-09T04:46:25;2.15;;;0.90;;
69053;SDS011;56125;52.242;4.756;2022-09-09T04:51:27;1.57;;;0.87;;
69053;SDS011;56125;52.242;4.756;2022-09-09T04:56:28;1.30;;;0.80;;
69053;SDS011;56125;52.242;4.756;2022-09-09T05:01:29;1.23;;;0.83;;
69053;SDS011;56125;52.242;4.756;2022-09-09T05:06:30;1.70;;;0.70;;
69053;SDS011;56125;52.242;4.756;2022-09-09T05:11:32;1.17;;;0.80;;
69053;SDS011;56125;52.242;4.756;2022-09-09T05:16:36;1.15;;;0.85;;
69053;SDS011;56125;52.242;4.756;2022-09-09T05:21:37;2.53;;;0.73;;
69053;SDS011;56125;52.242;4.756;2022-09-09T05:26:38;2.78;;;1.00;;
69053;SDS011;56125;52.242;4.756;2022-09-09T05:31:39;3.77;;;0.87;;
69053;SDS011;56125;52.242;4.756;2022-09-09T05:36:41;2.13;;;0.95;;
69053;SDS011;56125;52.242;4.756;2022-09-09T05:41:42;1.83;;;0.90;;
69053;SDS011;56125;52.242;4.756;2022-09-09T05:46:43;1.70;;;0.85;;
69053;SDS011;56125;52.242;4.756;2022-09-09T05:51:45;2.23;;;1.00;;
69053;SDS011;56125;52.242;4.756;2022-09-09T05:56:46;1.58;;;0.90;;
69053;SDS011;56125;52.242;4.756;2022-09-09T06:01:49;1.67;;;1.03;;
69053;SDS011;56125;52.242;4.756;2022-09-09T06:06:50;3.40;;;1.02;;
69053;SDS011;56125;52.242;4.756;2022-09-09T06:11:51;3.90;;;1.00;;
69053;SDS011;56125;52.242;4.756;2022-09-09T06:16:52;1.55;;;0.95;;
69053;SDS011;56125;52.242;4.756;2022-09-09T06:21:53;2.30;;;1.00;;
69053;SDS011;56125;52.242;4.756;2022-09-09T06:26:55;3.20;;;0.90;;
69053;SDS011;56125;52.242;4.756;2022-09-09T06:31:57;1.57;;;1.00;;
69053;SDS011;56125;52.242;4.756;2022-09-09T06:36:59;3.13;;;1.20;;
69053;SDS011;56125;52.242;4.756;2022-09-09T06:42:00;2.03;;;0.80;;
69053;SDS011;56125;52.242;4.756;2022-09-09T06:47:01;2.78;;;0.80;;
69053;SDS011;56125;52.242;4.756;2022-09-09T06:52:02;1.87;;;0.90;;
69053;SDS011;56125;52.242;4.756;2022-09-09T06:57:03;2.42;;;0.98;;
69053;SDS011;56125;52.242;4.756;2022-09-09T07:02:07;2.17;;;0.70;;
69053;SDS011;56125;52.242;4.756;2022-09-09T07:07:08;3.03;;;0.73;;
69053;SDS011;56125;52.242;4.756;2022-09-09T07:12:10;1.67;;;0.87;;
69053;SDS011;56125;52.242;4.756;2022-09-09T07:17:13;1.95;;;0.70;;
69053;SDS011;56125;52.242;4.756;2022-09-09T07:22:14;2.57;;;0.80;;
69053;SDS011;56125;52.242;4.756;2022-09-09T07:27:16;2.45;;;1.00;;
69053;SDS011;56125;52.242;4.756;2022-09-09T07:32:17;0.90;;;0.80;;
69053;SDS011;56125;52.242;4.756;2022-09-09T07:37:20;3.38;;;1.10;;
69053;SDS011;56125;52.242;4.756;2022-09-09T07:42:21;2.80;;;0.90;;
69053;SDS011;56125;52.242;4.756;2022-09-09T07:47:22;1.60;;;1.00;;
69053;SDS011;56125;52.242;4.756;2022-09-09T07:52:25;1.67;;;1.00;;
69053;SDS011;56125;52.242;4.756;2022-09-09T07:57:26;1.73;;;1.00;;
69053;SDS011;56125;52.242;4.756;2022-09-09T08:02:27;3.50;;;1.13;;
69053;SDS011;56125;52.242;4.756;2022-09-09T08:07:29;2.25;;;1.30;;
69053;SDS011;56125;52.242;4.756;2022-09-09T08:12:30;4.07;;;1.17;;
69053;SDS011;56125;52.242;4.756;2022-09-09T08:17:32;3.03;;;1.10;;
69053;SDS011;56125;52.242;4.756;2022-09-09T08:22:33;2.10;;;1.10;;
69053;SDS011;56125;52.242;4.756;2022-09-09T08:27:34;2.70;;;1.23;;
69053;SDS011;56125;52.242;4.756;2022-09-09T08:32:35;2.50;;;1.10;;
69053;SDS011;56125;52.242;4.756;2022-09-09T08:37:36;1.90;;;1.10;;
69053;SDS011;56125;52.242;4.756;2022-09-09T08:42:38;5.97;;;1.33;;
69053;SDS011;56125;52.242;4.756;2022-09-09T08:47:51;1.70;;;1.23;;
69053;SDS011;56125;52.242;4.756;2022-09-09T08:53:01;3.17;;;1.37;;
69053;SDS011;56125;52.242;4.756;2022-09-09T08:58:21;2.50;;;1.15;;
69053;SDS011;56125;52.242;4.756;2022-09-09T09:08:42;1.90;;;1.20;;
69053;SDS011;56125;52.242;4.756;2022-09-09T09:19:12;2.15;;;1.42;;
69053;SDS011;56125;52.242;4.756;2022-09-09T09:24:17;2.87;;;1.30;;
69053;SDS011;56125;52.242;4.756;2022-09-09T09:29:48;2.20;;;1.45;;
69053;SDS011;56125;52.242;4.756;2022-09-09T09:34:54;2.37;;;1.30;;
69053;SDS011;56125;52.242;4.756;2022-09-09T09:40:18;2.35;;;1.35;;
69053;SDS011;56125;52.242;4.756;2022-09-09T09:45:27;2.23;;;1.60;;
69053;SDS011;56125;52.242;4.756;2022-09-09T09:50:54;2.25;;;1.23;;
69053;SDS011;56125;52.242;4.756;2022-09-09T09:56:01;4.00;;;1.63;;
69053;SDS011;56125;52.242;4.756;2022-09-09T10:01:05;2.75;;;1.30;;
69053;SDS011;56125;52.242;4.756;2022-09-09T10:06:30;3.23;;;2.13;;
69053;SDS011;56125;52.242;4.756;2022-09-09T10:11:39;2.17;;;1.45;;
69053;SDS011;56125;52.242;4.756;2022-09-09T10:17:10;3.47;;;1.30;;
69053;SDS011;56125;52.242;4.756;2022-09-09T10:22:28;2.80;;;1.20;;
69053;SDS011;56125;52.242;4.756;2022-09-09T10:33:04;2.33;;;1.48;;
69053;SDS011;56125;52.242;4.756;2022-09-09T10:54:16;3.38;;;1.27;;
69053;SDS011;56125;52.242;4.756;2022-09-09T10:59:25;2.00;;;1.20;;
69053;SDS011;56125;52.242;4.756;2022-09-09T11:04:33;2.95;;;1.40;;
69053;SDS011;56125;52.242;4.756;2022-09-09T11:09:42;1.90;;;1.50;;
69053;SDS011;56125;52.242;4.756;2022-09-09T11:14:54;3.47;;;1.20;;
69053;SDS011;56125;52.242;4.756;2022-09-09T11:20:02;2.93;;;1.27;;
69053;SDS011;56125;52.242;4.756;2022-09-09T11:25:16;2.03;;;1.00;;
69053;SDS011;56125;52.242;4.756;2022-09-09T11:30:33;2.20;;;1.20;;
69053;SDS011;56125;52.242;4.756;2022-09-09T11:41:32;2.27;;;1.30;;
69053;SDS011;56125;52.242;4.756;2022-09-09T11:46:38;2.58;;;1.13;;
69053;SDS011;56125;52.242;4.756;2022-09-09T11:51:41;2.67;;;1.20;;
69053;SDS011;56125;52.242;4.756;2022-09-09T11:56:43;2.85;;;1.23;;
69053;SDS011;56125;52.242;4.756;2022-09-09T12:01:45;2.70;;;1.20;;
69053;SDS011;56125;52.242;4.756;2022-09-09T12:07:00;2.28;;;1.30;;
69053;SDS011;56125;52.242;4.756;2022-09-09T12:12:23;2.57;;;1.13;;
69053;SDS011;56125;52.242;4.756;2022-09-09T12:17:27;1.90;;;1.13;;
69053;SDS011;56125;52.242;4.756;2022-09-09T12:22:34;2.20;;;1.20;;
69053;SDS011;56125;52.242;4.756;2022-09-09T12:27:40;2.60;;;1.23;;
69053;SDS011;56125;52.242;4.756;2022-09-09T12:32:43;2.27;;;1.20;;
69053;SDS011;56125;52.242;4.756;2022-09-09T12:37:47;2.35;;;1.13;;
69053;SDS011;56125;52.242;4.756;2022-09-09T12:42:57;3.57;;;1.33;;
69053;SDS011;56125;52.242;4.756;2022-09-09T12:48:05;3.30;;;1.50;;
69053;SDS011;56125;52.242;4.756;2022-09-09T12:53:10;2.60;;;1.30;;
69053;SDS011;56125;52.242;4.756;2022-09-09T12:58:27;2.05;;;1.20;;
69053;SDS011;56125;52.242;4.756;2022-09-09T13:03:33;2.23;;;1.30;;
69053;SDS011;56125;52.242;4.756;2022-09-09T13:08:43;1.85;;;1.27;;
69053;SDS011;56125;52.242;4.756;2022-09-09T13:13:49;1.80;;;1.33;;
69053;SDS011;56125;52.242;4.756;2022-09-09T13:18:53;4.30;;;1.58;;
69053;SDS011;56125;52.242;4.756;2022-09-09T13:23:56;2.97;;;1.17;;
69053;SDS011;56125;52.242;4.756;2022-09-09T13:29:18;2.13;;;1.20;;
69053;SDS011;56125;52.242;4.756;2022-09-09T13:34:26;3.07;;;1.23;;
69053;SDS011;56125;52.242;4.756;2022-09-09T13:39:33;1.40;;;1.10;;
69053;SDS011;56125;52.242;4.756;2022-09-09T13:44:38;2.73;;;1.30;;
69053;SDS011;56125;52.242;4.756;2022-09-09T13:49:42;1.80;;;0.90;;
69053;SDS011;56125;52.242;4.756;2022-09-09T13:54:46;1.30;;;1.00;;
69053;SDS011;56125;52.242;4.756;2022-09-09T13:59:52;2.55;;;1.00;;
69053;SDS011;56125;52.242;4.756;2022-09-09T14:04:55;2.47;;;1.10;;
69053;SDS011;56125;52.242;4.756;2022-09-09T14:09:56;3.72;;;1.13;;
69053;SDS011;56125;52.242;4.756;2022-09-09T14:14:57;1.83;;;0.93;;
69053;SDS011;56125;52.242;4.756;2022-09-09T14:19:58;1.88;;;1.00;;
69053;SDS011;56125;52.242;4.756;2022-09-09T14:24:59;2.43;;;1.10;;
69053;SDS011;56125;52.242;4.756;2022-09-09T14:30:00;1.48;;;0.93;;
69053;SDS011;56125;52.242;4.756;2022-09-09T14:35:01;2.17;;;1.17;;
69053;SDS011;56125;52.242;4.756;2022-09-09T14:40:02;1.23;;;0.90;;
69053;SDS011;56125;52.242;4.756;2022-09-09T14:45:04;1.43;;;1.10;;
69053;SDS011;56125;52.242;4.756;2022-09-09T14:50:05;3.65;;;1.00;;
69053;SDS011;56125;52.242;4.756;2022-09-09T14:55:08;2.07;;;0.80;;
69053;SDS011;56125;52.242;4.756;2022-09-09T15:00:10;3.25;;;1.15;;
69053;SDS011;56125;52.242;4.756;2022-09-09T15:05:12;0.80;;;0.70;;
69053;SDS011;56125;52.242;4.756;2022-09-09T15:10:13;1.85;;;1.10;;
69053;SDS011;56125;52.242;4.756;2022-09-09T15:15:14;3.07;;;1.10;;
69053;SDS011;56125;52.242;4.756;2022-09-09T15:20:15;3.75;;;1.30;;
69053;SDS011;56125;52.242;4.756;2022-09-09T15:25:17;1.70;;;1.10;;
69053;SDS011;56125;52.242;4.756;2022-09-09T15:30:18;1.50;;;1.00;;
69053;SDS011;56125;52.242;4.756;2022-09-09T15:35:19;1.63;;;1.07;;
69053;SDS011;56125;52.242;4.756;2022-09-09T15:40:20;1.90;;;0.98;;
69053;SDS011;56125;52.242;4.756;2022-09-09T15:45:21;1.93;;;1.10;;
69053;SDS011;56125;52.242;4.756;2022-09-09T15:50:22;1.63;;;0.95;;
69053;SDS011;56125;52.242;4.756;2022-09-09T15:55:23;5.10;;;1.07;;
69053;SDS011;56125;52.242;4.756;2022-09-09T16:00:27;2.60;;;0.80;;
69053;SDS011;56125;52.242;4.756;2022-09-09T16:05:29;1.90;;;0.80;;
69053;SDS011;56125;52.242;4.756;2022-09-09T16:10:30;1.42;;;0.80;;
69053;SDS011;56125;52.242;4.756;2022-09-09T16:15:31;2.97;;;1.00;;
69053;SDS011;56125;52.242;4.756;2022-09-09T16:20:32;1.52;;;0.88;;
69053;SDS011;56125;52.242;4.756;2022-09-09T16:25:33;1.57;;;0.90;;
69053;SDS011;56125;52.242;4.756;2022-09-09T16:30:36;1.83;;;0.75;;
69053;SDS011;56125;52.242;4.756;2022-09-09T16:35:37;1.10;;;0.93;;
69053;SDS011;56125;52.242;4.756;2022-09-09T16:40:39;1.50;;;1.00;;
69053;SDS011;56125;52.242;4.756;2022-09-09T16:45:44;1.20;;;0.60;;
69053;SDS011;56125;52.242;4.756;2022-09-09T16:50:45;2.03;;;0.90;;
69053;SDS011;56125;52.242;4.756;2022-09-09T16:55:46;2.03;;;0.90;;
69053;SDS011;56125;52.242;4.756;2022-09-09T17:00:47;1.10;;;0.80;;
69053;SDS011;56125;52.242;4.756;2022-09-09T17:05:49;1.40;;;1.00;;
69053;SDS011;56125;52.242;4.756;2022-09-09T17:10:51;1.15;;;0.95;;
69053;SDS011;56125;52.242;4.756;2022-09-09T17:15:52;1.43;;;1.10;;
69053;SDS011;56125;52.242;4.756;2022-09-09T17:20:53;1.92;;;0.90;;
69053;SDS011;56125;52.242;4.756;2022-09-09T17:25:57;2.00;;;1.23;;
69053;SDS011;56125;52.242;4.756;2022-09-09T17:30:58;2.92;;;1.30;;
69053;SDS011;56125;52.242;4.756;2022-09-09T17:36:07;2.10;;;1.20;;
69053;SDS011;56125;52.242;4.756;2022-09-09T17:41:17;1.65;;;1.25;;
69053;SDS011;56125;52.242;4.756;2022-09-09T17:46:21;2.40;;;1.10;;
69053;SDS011;56125;52.242;4.756;2022-09-09T17:51:28;1.65;;;1.30;;
69053;SDS011;56125;52.242;4.756;2022-09-09T17:56:33;5.60;;;1.10;;
69053;SDS011;56125;52.242;4.756;2022-09-09T18:01:35;2.47;;;1.20;;
69053;SDS011;56125;52.242;4.756;2022-09-09T18:06:40;1.50;;;1.20;;
69053;SDS011;56125;52.242;4.756;2022-09-09T18:11:43;2.65;;;1.40;;
69053;SDS011;56125;52.242;4.756;2022-09-09T18:16:45;2.17;;;1.20;;
69053;SDS011;56125;52.242;4.756;2022-09-09T18:21:47;2.67;;;1.27;;
69053;SDS011;56125;52.242;4.756;2022-09-09T18:26:48;1.70;;;1.23;;
69053;SDS011;56125;52.242;4.756;2022-09-09T18:31:51;1.60;;;1.10;;
69053;SDS011;56125;52.242;4.756;2022-09-09T18:36:53;1.47;;;1.10;;
69053;SDS011;56125;52.242;4.756;2022-09-09T18:41:58;2.17;;;1.20;;
69053;SDS011;56125;52.242;4.756;2022-09-09T18:47:00;2.27;;;1.30;;
69053;SDS011;56125;52.242;4.756;2022-09-09T18:52:02;1.80;;;1.30;;
69053;SDS011;56125;52.242;4.756;2022-09-09T18:57:03;1.90;;;1.20;;
69053;SDS011;56125;52.242;4.756;2022-09-09T19:02:05;2.90;;;1.23;;
69053;SDS011;56125;52.242;4.756;2022-09-09T19:07:06;1.63;;;1.10;;
69053;SDS011;56125;52.242;4.756;2022-09-09T19:12:07;3.50;;;1.50;;
69053;SDS011;56125;52.242;4.756;2022-09-09T19:17:08;1.43;;;1.00;;
69053;SDS011;56125;52.242;4.756;2022-09-09T19:22:09;2.80;;;1.10;;
69053;SDS011;56125;52.242;4.756;2022-09-09T19:27:11;2.67;;;1.30;;
69053;SDS011;56125;52.242;4.756;2022-09-09T19:32:12;2.60;;;1.17;;
69053;SDS011;56125;52.242;4.756;2022-09-09T19:37:13;2.27;;;1.23;;
69053;SDS011;56125;52.242;4.756;2022-09-09T19:42:14;2.13;;;1.10;;
69053;SDS011;56125;52.242;4.756;2022-09-09T19:47:18;1.90;;;1.07;;
69053;SDS011;56125;52.242;4.756;2022-09-09T19:52:19;1.92;;;1.00;;
69053;SDS011;56125;52.242;4.756;2022-09-09T19:57:20;1.70;;;1.10;;
69053;SDS011;56125;52.242;4.756;2022-09-09T20:02:23;1.88;;;1.10;;
69053;SDS011;56125;52.242;4.756;2022-09-09T20:07:24;1.93;;;1.10;;
69053;SDS011;56125;52.242;4.756;2022-09-09T20:12:25;1.92;;;1.10;;
69053;SDS011;56125;52.242;4.756;2022-09-09T20:17:26;1.50;;;1.13;;
69053;SDS011;56125;52.242;4.756;2022-09-09T20:22:27;2.42;;;1.10;;
69053;SDS011;56125;52.242;4.756;2022-09-09T20:27:28;2.20;;;1.23;;
69053;SDS011;56125;52.242;4.756;2022-09-09T20:32:31;1.90;;;1.10;;
69053;SDS011;56125;52.242;4.756;2022-09-09T20:37:32;1.60;;;1.17;;
69053;SDS011;56125;52.242;4.756;2022-09-09T20:42:33;2.47;;;1.10;;
69053;SDS011;56125;52.242;4.756;2022-09-09T20:47:34;5.50;;;1.50;;
69053;SDS011;56125;52.242;4.756;2022-09-09T20:52:35;2.67;;;1.25;;
69053;SDS011;56125;52.242;4.756;2022-09-09T20:57:36;2.23;;;1.07;;
69053;SDS011;56125;52.242;4.756;2022-09-09T21:02:37;3.80;;;1.45;;
69053;SDS011;56125;52.242;4.756;2022-09-09T21:07:38;2.67;;;1.50;;
69053;SDS011;56125;52.242;4.756;2022-09-09T21:12:39;2.45;;;1.38;;
69053;SDS011;56125;52.242;4.756;2022-09-09T21:17:40;2.30;;;1.20;;
69053;SDS011;56125;52.242;4.756;2022-09-09T21:22:41;1.88;;;1.20;;
69053;SDS011;56125;52.242;4.756;2022-09-09T21:27:42;2.10;;;1.33;;
69053;SDS011;56125;52.242;4.756;2022-09-09T21:32:43;1.85;;;1.20;;
69053;SDS011;56125;52.242;4.756;2022-09-09T21:37:44;1.70;;;1.20;;
69053;SDS011;56125;52.242;4.756;2022-09-09T21:42:46;2.35;;;1.55;;
69053;SDS011;56125;52.242;4.756;2022-09-09T21:47:47;2.27;;;1.20;;
69053;SDS011;56125;52.242;4.756;2022-09-09T21:52:48;2.83;;;1.33;;
69053;SDS011;56125;52.242;4.756;2022-09-09T21:57:50;2.07;;;1.20;;
69053;SDS011;56125;52.242;4.756;2022-09-09T22:02:51;1.45;;;1.00;;
69053;SDS011;56125;52.242;4.756;2022-09-09T22:07:52;3.43;;;1.43;;
69053;SDS011;56125;52.242;4.756;2022-09-09T22:12:53;2.53;;;1.10;;
69053;SDS011;56125;52.242;4.756;2022-09-09T22:17:54;2.47;;;1.13;;
69053;SDS011;56125;52.242;4.756;2022-09-09T22:22:55;1.70;;;1.10;;
69053;SDS011;56125;52.242;4.756;2022-09-09T22:27:56;1.80;;;1.37;;
69053;SDS011;56125;52.242;4.756;2022-09-09T22:32:58;2.33;;;1.20;;
69053;SDS011;56125;52.242;4.756;2022-09-09T22:38:00;3.03;;;1.20;;
69053;SDS011;56125;52.242;4.756;2022-09-09T22:43:01;1.83;;;1.00;;
69053;SDS011;56125;52.242;4.756;2022-09-09T22:48:03;2.00;;;1.20;;
69053;SDS011;56125;52.242;4.756;2022-09-09T22:53:04;2.35;;;1.20;;
69053;SDS011;56125;52.242;4.756;2022-09-09T22:58:05;1.87;;;1.20;;
69053;SDS011;56125;52.242;4.756;2022-09-09T23:03:07;1.25;;;0.98;;
69053;SDS011;56125;52.242;4.756;2022-09-09T23:08:08;1.60;;;1.00;;
69053;SDS011;56125;52.242;4.756;2022-09-09T23:13:09;1.77;;;1.17;;
69053;SDS011;56125;52.242;4.756;2022-09-09T23:18:10;1.57;;;1.20;;
69053;SDS011;56125;52.242;4.756;2022-09-09T23:23:13;2.58;;;1.20;;
69053;SDS011;56125;52.242;4.756;2022-09-09T23:28:14;1.80;;;1.30;;
69053;SDS011;56125;52.242;4.756;2022-09-09T23:33:15;3.65;;;1.10;;
69053;SDS011;56125;52.242;4.756;2022-09-09T23:38:16;2.40;;;1.10;;
69053;SDS011;56125;52.242;4.756;2022-09-09T23:43:17;1.42;;;0.95;;
69053;SDS011;56125;52.242;4.756;2022-09-09T23:48:21;2.00;;;1.10;;
69053;SDS011;56125;52.242;4.756;2022-09-09T23:53:27;2.38;;;1.23;;
69053;SDS011;56125;52.242;4.756;2022-09-09T23:58:29;2.37;;;1.30;;
